sensor_id;sensor_type;location;lat;lon;timestamp;P1;durP1;ratioP1;P2;durP2;ratioP2
24153;SDS011;12312;53.362;-1.518;2023-04-07T00:01:34;8.07;;;1.63;;
24153;SDS011;12312;53.362;-1.518;2023-04-07T00:04:18;6.95;;;1.58;;
24153;SDS011;12312;53.362;-1.518;2023-04-07T00:09:48;9.10;;;1.63;;
24153;SDS011;12312;53.362;-1.518;2023-04-07T00:12:33;7.43;;;1.30;;
24153;SDS011;12312;53.362;-1.518;2023-04-07T00:15:17;5.97;;;1.38;;
24153;SDS011;12312;53.362;-1.518;2023-04-07T00:18:01;6.47;;;1.50;;
24153;SDS011;12312;53.362;-1.518;2023-04-07T00:20:45;6.03;;;1.40;;
24153;SDS011;12312;53.362;-1.518;2023-04-07T00:23:29;12.38;;;1.95;;
24153;SDS011;12312;53.362;-1.518;2023-04-07T00:26:12;8.13;;;1.33;;
24153;SDS011;12312;53.362;-1.518;2023-04-07T00:28:57;5.88;;;1.10;;
24153;SDS011;12312;53.362;-1.518;2023-04-07T00:31:42;3.92;;;1.13;;
24153;SDS011;12312;53.362;-1.518;2023-04-07T00:34:26;5.85;;;1.20;;
24153;SDS011;12312;53.362;-1.518;2023-04-07T00:37:10;5.80;;;1.83;;
24153;SDS011;12312;53.362;-1.518;2023-04-07T00:39:54;5.25;;;1.10;;
24153;SDS011;12312;53.362;-1.518;2023-04-07T00:42:39;9.32;;;1.50;;
24153;SDS011;12312;53.362;-1.518;2023-04-07T00:45:23;8.65;;;1.52;;
24153;SDS011;12312;53.362;-1.518;2023-04-07T00:48:08;6.13;;;1.10;;
24153;SDS011;12312;53.362;-1.518;2023-04-07T00:50:53;4.95;;;1.33;;
24153;SDS011;12312;53.362;-1.518;2023-04-07T00:53:37;4.72;;;1.10;;
24153;SDS011;12312;53.362;-1.518;2023-04-07T00:56:22;6.07;;;1.33;;
24153;SDS011;12312;53.362;-1.518;2023-04-07T00:59:07;4.85;;;1.20;;
24153;SDS011;12312;53.362;-1.518;2023-04-07T01:01:58;5.13;;;1.67;;
24153;SDS011;12312;53.362;-1.518;2023-04-07T01:08:05;4.82;;;1.67;;
24153;SDS011;12312;53.362;-1.518;2023-04-07T01:13:51;6.10;;;1.40;;
24153;SDS011;12312;53.362;-1.518;2023-04-07T01:16:45;11.07;;;1.40;;
24153;SDS011;12312;53.362;-1.518;2023-04-07T01:19:37;11.77;;;1.88;;
24153;SDS011;12312;53.362;-1.518;2023-04-07T01:22:50;5.70;;;1.60;;
24153;SDS011;12312;53.362;-1.518;2023-04-07T01:25:49;3.33;;;1.35;;
24153;SDS011;12312;53.362;-1.518;2023-04-07T01:31:26;6.15;;;1.10;;
24153;SDS011;12312;53.362;-1.518;2023-04-07T01:34:12;7.32;;;1.25;;
24153;SDS011;12312;53.362;-1.518;2023-04-07T01:36:58;6.05;;;1.48;;
24153;SDS011;12312;53.362;-1.518;2023-04-07T01:39:45;6.78;;;1.20;;
24153;SDS011;12312;53.362;-1.518;2023-04-07T01:42:29;1.25;;;0.90;;
24153;SDS011;12312;53.362;-1.518;2023-04-07T01:45:15;6.28;;;1.13;;
24153;SDS011;12312;53.362;-1.518;2023-04-07T01:48:00;5.18;;;1.00;;
24153;SDS011;12312;53.362;-1.518;2023-04-07T01:50:48;9.77;;;1.58;;
24153;SDS011;12312;53.362;-1.518;2023-04-07T01:53:33;3.03;;;1.00;;
24153;SDS011;12312;53.362;-1.518;2023-04-07T01:56:20;5.05;;;1.30;;
24153;SDS011;12312;53.362;-1.518;2023-04-07T01:59:04;6.85;;;1.38;;
24153;SDS011;12312;53.362;-1.518;2023-04-07T02:01:48;5.93;;;1.20;;
24153;SDS011;12312;53.362;-1.518;2023-04-07T02:07:27;8.07;;;1.63;;
24153;SDS011;12312;53.362;-1.518;2023-04-07T02:10:15;4.90;;;1.30;;
24153;SDS011;12312;53.362;-1.518;2023-04-07T02:13:03;7.75;;;1.33;;
24153;SDS011;12312;53.362;-1.518;2023-04-07T02:15:51;3.90;;;1.35;;
24153;SDS011;12312;53.362;-1.518;2023-04-07T02:18:38;4.43;;;1.35;;
24153;SDS011;12312;53.362;-1.518;2023-04-07T02:21:24;4.15;;;1.48;;
24153;SDS011;12312;53.362;-1.518;2023-04-07T02:24:10;9.32;;;1.20;;
24153;SDS011;12312;53.362;-1.518;2023-04-07T02:26:54;3.88;;;0.95;;
24153;SDS011;12312;53.362;-1.518;2023-04-07T02:29:40;6.68;;;1.25;;
24153;SDS011;12312;53.362;-1.518;2023-04-07T02:32:24;2.55;;;1.40;;
24153;SDS011;12312;53.362;-1.518;2023-04-07T02:35:09;6.10;;;1.25;;
24153;SDS011;12312;53.362;-1.518;2023-04-07T02:37:54;4.63;;;1.33;;
24153;SDS011;12312;53.362;-1.518;2023-04-07T02:40:38;4.80;;;1.20;;
24153;SDS011;12312;53.362;-1.518;2023-04-07T02:43:22;4.22;;;0.98;;
24153;SDS011;12312;53.362;-1.518;2023-04-07T02:46:08;6.82;;;1.00;;
24153;SDS011;12312;53.362;-1.518;2023-04-07T02:48:52;6.25;;;1.60;;
24153;SDS011;12312;53.362;-1.518;2023-04-07T02:51:36;4.25;;;1.15;;
24153;SDS011;12312;53.362;-1.518;2023-04-07T02:54:20;8.73;;;1.33;;
24153;SDS011;12312;53.362;-1.518;2023-04-07T02:57:04;5.60;;;1.17;;
24153;SDS011;12312;53.362;-1.518;2023-04-07T02:59:48;4.75;;;1.08;;
24153;SDS011;12312;53.362;-1.518;2023-04-07T03:02:32;7.10;;;1.20;;
24153;SDS011;12312;53.362;-1.518;2023-04-07T03:05:16;6.63;;;1.00;;
24153;SDS011;12312;53.362;-1.518;2023-04-07T03:08:01;6.32;;;1.20;;
24153;SDS011;12312;53.362;-1.518;2023-04-07T03:10:44;5.43;;;1.20;;
24153;SDS011;12312;53.362;-1.518;2023-04-07T03:13:28;7.63;;;1.00;;
24153;SDS011;12312;53.362;-1.518;2023-04-07T03:16:13;3.47;;;1.00;;
24153;SDS011;12312;53.362;-1.518;2023-04-07T03:18:57;2.80;;;1.05;;
24153;SDS011;12312;53.362;-1.518;2023-04-07T03:21:41;10.45;;;1.17;;
24153;SDS011;12312;53.362;-1.518;2023-04-07T03:24:25;5.30;;;1.50;;
24153;SDS011;12312;53.362;-1.518;2023-04-07T03:27:09;5.60;;;1.30;;
24153;SDS011;12312;53.362;-1.518;2023-04-07T03:29:53;6.28;;;1.30;;
24153;SDS011;12312;53.362;-1.518;2023-04-07T03:32:37;4.82;;;1.40;;
24153;SDS011;12312;53.362;-1.518;2023-04-07T03:35:21;4.32;;;1.00;;
24153;SDS011;12312;53.362;-1.518;2023-04-07T03:38:05;5.75;;;1.42;;
24153;SDS011;12312;53.362;-1.518;2023-04-07T03:40:49;4.22;;;1.27;;
24153;SDS011;12312;53.362;-1.518;2023-04-07T03:43:33;7.72;;;1.92;;
24153;SDS011;12312;53.362;-1.518;2023-04-07T03:46:20;3.92;;;1.10;;
24153;SDS011;12312;53.362;-1.518;2023-04-07T03:49:04;3.47;;;1.13;;
24153;SDS011;12312;53.362;-1.518;2023-04-07T03:51:49;5.65;;;1.33;;
24153;SDS011;12312;53.362;-1.518;2023-04-07T03:54:33;3.60;;;1.10;;
24153;SDS011;12312;53.362;-1.518;2023-04-07T03:57:18;4.55;;;1.10;;
24153;SDS011;12312;53.362;-1.518;2023-04-07T04:00:02;3.10;;;1.00;;
24153;SDS011;12312;53.362;-1.518;2023-04-07T04:02:47;4.55;;;1.10;;
24153;SDS011;12312;53.362;-1.518;2023-04-07T04:05:31;8.68;;;1.05;;
24153;SDS011;12312;53.362;-1.518;2023-04-07T04:08:15;3.92;;;1.15;;
24153;SDS011;12312;53.362;-1.518;2023-04-07T04:11:00;7.28;;;1.67;;
24153;SDS011;12312;53.362;-1.518;2023-04-07T04:13:44;7.55;;;1.63;;
24153;SDS011;12312;53.362;-1.518;2023-04-07T04:16:29;7.25;;;1.17;;
24153;SDS011;12312;53.362;-1.518;2023-04-07T04:19:14;3.83;;;1.08;;
24153;SDS011;12312;53.362;-1.518;2023-04-07T04:21:58;4.25;;;1.33;;
24153;SDS011;12312;53.362;-1.518;2023-04-07T04:24:41;5.63;;;1.05;;
24153;SDS011;12312;53.362;-1.518;2023-04-07T04:27:26;2.08;;;1.10;;
24153;SDS011;12312;53.362;-1.518;2023-04-07T04:30:10;2.90;;;1.00;;
24153;SDS011;12312;53.362;-1.518;2023-04-07T04:32:54;2.42;;;1.30;;
24153;SDS011;12312;53.362;-1.518;2023-04-07T04:35:38;2.55;;;1.13;;
24153;SDS011;12312;53.362;-1.518;2023-04-07T04:38:23;5.75;;;1.08;;
24153;SDS011;12312;53.362;-1.518;2023-04-07T04:41:07;5.22;;;1.10;;
24153;SDS011;12312;53.362;-1.518;2023-04-07T04:43:51;2.63;;;0.90;;
24153;SDS011;12312;53.362;-1.518;2023-04-07T04:46:35;4.07;;;1.00;;
24153;SDS011;12312;53.362;-1.518;2023-04-07T04:49:19;5.55;;;1.00;;
24153;SDS011;12312;53.362;-1.518;2023-04-07T04:52:03;4.28;;;0.98;;
24153;SDS011;12312;53.362;-1.518;2023-04-07T04:54:47;3.35;;;1.42;;
24153;SDS011;12312;53.362;-1.518;2023-04-07T04:57:31;5.75;;;1.63;;
24153;SDS011;12312;53.362;-1.518;2023-04-07T05:00:19;3.83;;;1.00;;
24153;SDS011;12312;53.362;-1.518;2023-04-07T05:03:03;2.55;;;0.90;;
24153;SDS011;12312;53.362;-1.518;2023-04-07T05:05:47;6.60;;;1.42;;
24153;SDS011;12312;53.362;-1.518;2023-04-07T05:08:32;2.60;;;1.02;;
24153;SDS011;12312;53.362;-1.518;2023-04-07T05:11:16;2.45;;;0.80;;
24153;SDS011;12312;53.362;-1.518;2023-04-07T05:13:59;5.78;;;0.90;;
24153;SDS011;12312;53.362;-1.518;2023-04-07T05:16:43;4.30;;;1.33;;
24153;SDS011;12312;53.362;-1.518;2023-04-07T05:19:28;2.63;;;0.90;;
24153;SDS011;12312;53.362;-1.518;2023-04-07T05:22:12;5.10;;;0.75;;
24153;SDS011;12312;53.362;-1.518;2023-04-07T05:24:56;3.63;;;0.77;;
24153;SDS011;12312;53.362;-1.518;2023-04-07T05:27:40;4.32;;;0.82;;
24153;SDS011;12312;53.362;-1.518;2023-04-07T05:30:24;3.70;;;1.00;;
24153;SDS011;12312;53.362;-1.518;2023-04-07T05:33:09;3.30;;;1.15;;
24153;SDS011;12312;53.362;-1.518;2023-04-07T05:35:53;3.90;;;1.00;;
24153;SDS011;12312;53.362;-1.518;2023-04-07T05:38:37;3.83;;;1.00;;
24153;SDS011;12312;53.362;-1.518;2023-04-07T05:41:21;5.07;;;1.02;;
24153;SDS011;12312;53.362;-1.518;2023-04-07T05:44:05;2.80;;;1.00;;
24153;SDS011;12312;53.362;-1.518;2023-04-07T05:46:49;3.05;;;0.95;;
24153;SDS011;12312;53.362;-1.518;2023-04-07T05:49:34;4.63;;;1.17;;
24153;SDS011;12312;53.362;-1.518;2023-04-07T05:52:18;4.85;;;1.00;;
24153;SDS011;12312;53.362;-1.518;2023-04-07T05:55:02;3.20;;;0.80;;
24153;SDS011;12312;53.362;-1.518;2023-04-07T05:57:46;3.55;;;1.08;;
24153;SDS011;12312;53.362;-1.518;2023-04-07T06:00:30;2.50;;;1.10;;
24153;SDS011;12312;53.362;-1.518;2023-04-07T06:03:14;3.10;;;1.00;;
24153;SDS011;12312;53.362;-1.518;2023-04-07T06:05:58;5.15;;;0.90;;
24153;SDS011;12312;53.362;-1.518;2023-04-07T06:08:42;4.57;;;1.20;;
24153;SDS011;12312;53.362;-1.518;2023-04-07T06:11:28;6.57;;;1.02;;
24153;SDS011;12312;53.362;-1.518;2023-04-07T06:14:12;2.78;;;0.90;;
24153;SDS011;12312;53.362;-1.518;2023-04-07T06:16:56;5.50;;;0.82;;
24153;SDS011;12312;53.362;-1.518;2023-04-07T06:19:40;2.75;;;1.77;;
24153;SDS011;12312;53.362;-1.518;2023-04-07T06:22:24;9.65;;;1.10;;
24153;SDS011;12312;53.362;-1.518;2023-04-07T06:25:08;3.30;;;1.00;;
24153;SDS011;12312;53.362;-1.518;2023-04-07T06:27:52;2.83;;;0.80;;
24153;SDS011;12312;53.362;-1.518;2023-04-07T06:30:38;4.97;;;0.98;;
24153;SDS011;12312;53.362;-1.518;2023-04-07T06:33:23;5.35;;;1.55;;
24153;SDS011;12312;53.362;-1.518;2023-04-07T06:36:08;6.07;;;1.00;;
24153;SDS011;12312;53.362;-1.518;2023-04-07T06:38:52;2.65;;;1.00;;
24153;SDS011;12312;53.362;-1.518;2023-04-07T06:41:36;4.80;;;1.25;;
24153;SDS011;12312;53.362;-1.518;2023-04-07T06:44:21;2.55;;;1.23;;
24153;SDS011;12312;53.362;-1.518;2023-04-07T06:47:05;3.10;;;0.68;;
24153;SDS011;12312;53.362;-1.518;2023-04-07T06:49:49;5.82;;;1.00;;
24153;SDS011;12312;53.362;-1.518;2023-04-07T06:52:33;4.68;;;1.00;;
24153;SDS011;12312;53.362;-1.518;2023-04-07T06:55:17;3.80;;;0.80;;
24153;SDS011;12312;53.362;-1.518;2023-04-07T06:58:01;4.35;;;1.02;;
24153;SDS011;12312;53.362;-1.518;2023-04-07T07:00:45;6.10;;;1.10;;
24153;SDS011;12312;53.362;-1.518;2023-04-07T07:03:29;2.45;;;0.82;;
24153;SDS011;12312;53.362;-1.518;2023-04-07T07:06:14;2.80;;;0.82;;
24153;SDS011;12312;53.362;-1.518;2023-04-07T07:08:58;2.58;;;0.95;;
24153;SDS011;12312;53.362;-1.518;2023-04-07T07:11:43;3.40;;;1.23;;
24153;SDS011;12312;53.362;-1.518;2023-04-07T07:14:27;2.60;;;0.80;;
24153;SDS011;12312;53.362;-1.518;2023-04-07T07:17:11;3.60;;;0.80;;
24153;SDS011;12312;53.362;-1.518;2023-04-07T07:19:55;3.97;;;0.93;;
24153;SDS011;12312;53.362;-1.518;2023-04-07T07:22:39;7.85;;;1.20;;
24153;SDS011;12312;53.362;-1.518;2023-04-07T07:25:24;3.42;;;1.10;;
24153;SDS011;12312;53.362;-1.518;2023-04-07T07:28:11;3.03;;;0.90;;
24153;SDS011;12312;53.362;-1.518;2023-04-07T07:30:55;2.70;;;0.75;;
24153;SDS011;12312;53.362;-1.518;2023-04-07T07:33:39;5.18;;;1.00;;
24153;SDS011;12312;53.362;-1.518;2023-04-07T07:36:24;3.17;;;0.95;;
24153;SDS011;12312;53.362;-1.518;2023-04-07T07:39:09;2.83;;;0.68;;
24153;SDS011;12312;53.362;-1.518;2023-04-07T07:41:54;2.08;;;0.95;;
24153;SDS011;12312;53.362;-1.518;2023-04-07T07:44:38;4.50;;;0.98;;
24153;SDS011;12312;53.362;-1.518;2023-04-07T07:47:22;4.18;;;1.00;;
24153;SDS011;12312;53.362;-1.518;2023-04-07T07:50:06;3.13;;;1.10;;
24153;SDS011;12312;53.362;-1.518;2023-04-07T07:52:50;6.78;;;1.20;;
24153;SDS011;12312;53.362;-1.518;2023-04-07T07:55:34;6.85;;;0.80;;
24153;SDS011;12312;53.362;-1.518;2023-04-07T07:58:18;1.52;;;0.70;;
24153;SDS011;12312;53.362;-1.518;2023-04-07T08:01:03;2.80;;;0.88;;
24153;SDS011;12312;53.362;-1.518;2023-04-07T08:03:47;3.60;;;1.05;;
24153;SDS011;12312;53.362;-1.518;2023-04-07T08:06:31;2.58;;;0.93;;
24153;SDS011;12312;53.362;-1.518;2023-04-07T08:09:16;3.55;;;1.17;;
24153;SDS011;12312;53.362;-1.518;2023-04-07T08:12:01;4.60;;;0.75;;
24153;SDS011;12312;53.362;-1.518;2023-04-07T08:14:45;2.83;;;0.60;;
24153;SDS011;12312;53.362;-1.518;2023-04-07T08:17:28;1.33;;;0.90;;
24153;SDS011;12312;53.362;-1.518;2023-04-07T08:20:13;1.70;;;0.77;;
24153;SDS011;12312;53.362;-1.518;2023-04-07T08:22:57;3.35;;;1.00;;
24153;SDS011;12312;53.362;-1.518;2023-04-07T08:25:42;2.17;;;0.82;;
24153;SDS011;12312;53.362;-1.518;2023-04-07T08:28:26;5.60;;;1.35;;
24153;SDS011;12312;53.362;-1.518;2023-04-07T08:31:10;2.00;;;0.82;;
24153;SDS011;12312;53.362;-1.518;2023-04-07T08:33:54;4.80;;;0.80;;
24153;SDS011;12312;53.362;-1.518;2023-04-07T08:36:40;6.78;;;1.13;;
24153;SDS011;12312;53.362;-1.518;2023-04-07T08:39:24;1.35;;;0.88;;
24153;SDS011;12312;53.362;-1.518;2023-04-07T08:42:09;6.32;;;1.05;;
24153;SDS011;12312;53.362;-1.518;2023-04-07T08:44:57;4.18;;;0.95;;
24153;SDS011;12312;53.362;-1.518;2023-04-07T08:47:45;4.35;;;0.82;;
24153;SDS011;12312;53.362;-1.518;2023-04-07T08:50:32;1.33;;;0.60;;
24153;SDS011;12312;53.362;-1.518;2023-04-07T08:53:28;5.80;;;1.10;;
24153;SDS011;12312;53.362;-1.518;2023-04-07T08:56:33;8.90;;;1.13;;
24153;SDS011;12312;53.362;-1.518;2023-04-07T08:59:17;4.00;;;0.80;;
24153;SDS011;12312;53.362;-1.518;2023-04-07T09:02:01;3.97;;;1.10;;
24153;SDS011;12312;53.362;-1.518;2023-04-07T09:04:47;2.72;;;0.80;;
24153;SDS011;12312;53.362;-1.518;2023-04-07T09:07:32;1.88;;;0.88;;
24153;SDS011;12312;53.362;-1.518;2023-04-07T09:10:18;1.85;;;0.60;;
24153;SDS011;12312;53.362;-1.518;2023-04-07T09:13:02;2.83;;;0.70;;
24153;SDS011;12312;53.362;-1.518;2023-04-07T09:15:46;2.85;;;0.98;;
24153;SDS011;12312;53.362;-1.518;2023-04-07T09:18:30;3.17;;;0.80;;
24153;SDS011;12312;53.362;-1.518;2023-04-07T09:21:15;6.97;;;1.05;;
24153;SDS011;12312;53.362;-1.518;2023-04-07T09:23:59;1.67;;;0.73;;
24153;SDS011;12312;53.362;-1.518;2023-04-07T09:26:43;4.85;;;0.77;;
24153;SDS011;12312;53.362;-1.518;2023-04-07T09:29:27;1.95;;;0.82;;
24153;SDS011;12312;53.362;-1.518;2023-04-07T09:32:11;5.32;;;1.25;;
24153;SDS011;12312;53.362;-1.518;2023-04-07T09:34:59;3.13;;;0.90;;
24153;SDS011;12312;53.362;-1.518;2023-04-07T09:37:43;4.40;;;0.95;;
24153;SDS011;12312;53.362;-1.518;2023-04-07T09:40:27;1.73;;;0.73;;
24153;SDS011;12312;53.362;-1.518;2023-04-07T09:43:16;3.03;;;0.80;;
24153;SDS011;12312;53.362;-1.518;2023-04-07T09:48:59;3.17;;;0.90;;
24153;SDS011;12312;53.362;-1.518;2023-04-07T09:54:40;2.13;;;0.70;;
24153;SDS011;12312;53.362;-1.518;2023-04-07T09:57:24;2.92;;;0.80;;
24153;SDS011;12312;53.362;-1.518;2023-04-07T10:00:08;3.25;;;0.80;;
24153;SDS011;12312;53.362;-1.518;2023-04-07T10:02:54;4.47;;;0.75;;
24153;SDS011;12312;53.362;-1.518;2023-04-07T10:05:39;3.03;;;0.80;;
24153;SDS011;12312;53.362;-1.518;2023-04-07T10:08:23;2.95;;;0.80;;
24153;SDS011;12312;53.362;-1.518;2023-04-07T10:11:08;2.67;;;0.60;;
24153;SDS011;12312;53.362;-1.518;2023-04-07T10:13:53;3.22;;;0.80;;
24153;SDS011;12312;53.362;-1.518;2023-04-07T10:16:37;4.53;;;0.63;;
24153;SDS011;12312;53.362;-1.518;2023-04-07T10:19:22;8.15;;;1.10;;
24153;SDS011;12312;53.362;-1.518;2023-04-07T10:22:07;1.40;;;0.68;;
24153;SDS011;12312;53.362;-1.518;2023-04-07T10:24:56;4.03;;;0.90;;
24153;SDS011;12312;53.362;-1.518;2023-04-07T10:27:44;5.15;;;0.77;;
24153;SDS011;12312;53.362;-1.518;2023-04-07T10:30:32;3.50;;;0.55;;
24153;SDS011;12312;53.362;-1.518;2023-04-07T10:33:21;2.92;;;0.80;;
24153;SDS011;12312;53.362;-1.518;2023-04-07T10:36:35;2.63;;;0.80;;
24153;SDS011;12312;53.362;-1.518;2023-04-07T10:39:19;2.88;;;0.63;;
24153;SDS011;12312;53.362;-1.518;2023-04-07T10:42:04;1.90;;;0.60;;
24153;SDS011;12312;53.362;-1.518;2023-04-07T10:44:49;2.70;;;0.68;;
24153;SDS011;12312;53.362;-1.518;2023-04-07T10:47:33;1.92;;;0.77;;
24153;SDS011;12312;53.362;-1.518;2023-04-07T10:50:19;4.13;;;0.70;;
24153;SDS011;12312;53.362;-1.518;2023-04-07T10:53:09;3.13;;;0.70;;
24153;SDS011;12312;53.362;-1.518;2023-04-07T10:55:55;1.55;;;0.82;;
24153;SDS011;12312;53.362;-1.518;2023-04-07T10:58:40;3.00;;;0.77;;
24153;SDS011;12312;53.362;-1.518;2023-04-07T11:01:24;3.22;;;0.90;;
24153;SDS011;12312;53.362;-1.518;2023-04-07T11:04:08;1.80;;;0.70;;
24153;SDS011;12312;53.362;-1.518;2023-04-07T11:06:53;1.85;;;0.65;;
24153;SDS011;12312;53.362;-1.518;2023-04-07T11:09:37;3.05;;;0.90;;
24153;SDS011;12312;53.362;-1.518;2023-04-07T11:12:23;4.68;;;0.82;;
24153;SDS011;12312;53.362;-1.518;2023-04-07T11:15:20;2.78;;;0.90;;
24153;SDS011;12312;53.362;-1.518;2023-04-07T11:18:09;1.98;;;0.90;;
24153;SDS011;12312;53.362;-1.518;2023-04-07T11:20:56;1.55;;;0.60;;
24153;SDS011;12312;53.362;-1.518;2023-04-07T11:23:44;3.25;;;0.88;;
24153;SDS011;12312;53.362;-1.518;2023-04-07T11:26:35;2.45;;;0.75;;
24153;SDS011;12312;53.362;-1.518;2023-04-07T11:29:26;2.22;;;0.90;;
24153;SDS011;12312;53.362;-1.518;2023-04-07T11:32:11;2.70;;;0.90;;
24153;SDS011;12312;53.362;-1.518;2023-04-07T11:34:56;1.70;;;0.60;;
24153;SDS011;12312;53.362;-1.518;2023-04-07T11:37:40;3.35;;;0.65;;
24153;SDS011;12312;53.362;-1.518;2023-04-07T11:40:34;2.78;;;0.80;;
24153;SDS011;12312;53.362;-1.518;2023-04-07T11:43:21;4.50;;;0.70;;
24153;SDS011;12312;53.362;-1.518;2023-04-07T11:46:11;2.13;;;0.60;;
24153;SDS011;12312;53.362;-1.518;2023-04-07T11:49:07;1.85;;;0.60;;
24153;SDS011;12312;53.362;-1.518;2023-04-07T11:54:43;4.45;;;0.68;;
24153;SDS011;12312;53.362;-1.518;2023-04-07T11:57:30;2.50;;;0.80;;
24153;SDS011;12312;53.362;-1.518;2023-04-07T12:00:14;1.52;;;0.52;;
24153;SDS011;12312;53.362;-1.518;2023-04-07T12:03:07;2.35;;;0.60;;
24153;SDS011;12312;53.362;-1.518;2023-04-07T12:05:53;3.03;;;0.63;;
24153;SDS011;12312;53.362;-1.518;2023-04-07T12:08:39;3.22;;;0.65;;
24153;SDS011;12312;53.362;-1.518;2023-04-07T12:11:24;5.22;;;0.93;;
24153;SDS011;12312;53.362;-1.518;2023-04-07T12:14:08;1.33;;;0.70;;
24153;SDS011;12312;53.362;-1.518;2023-04-07T12:16:52;2.97;;;0.80;;
24153;SDS011;12312;53.362;-1.518;2023-04-07T12:19:40;3.90;;;0.85;;
24153;SDS011;12312;53.362;-1.518;2023-04-07T12:22:25;2.97;;;0.82;;
24153;SDS011;12312;53.362;-1.518;2023-04-07T12:25:09;3.33;;;0.70;;
24153;SDS011;12312;53.362;-1.518;2023-04-07T12:27:53;3.20;;;0.70;;
24153;SDS011;12312;53.362;-1.518;2023-04-07T12:30:37;3.25;;;0.68;;
24153;SDS011;12312;53.362;-1.518;2023-04-07T12:33:21;2.85;;;0.52;;
24153;SDS011;12312;53.362;-1.518;2023-04-07T12:36:05;2.25;;;0.80;;
24153;SDS011;12312;53.362;-1.518;2023-04-07T12:38:49;2.22;;;0.68;;
24153;SDS011;12312;53.362;-1.518;2023-04-07T12:41:33;2.30;;;0.60;;
24153;SDS011;12312;53.362;-1.518;2023-04-07T12:44:17;1.17;;;0.40;;
24153;SDS011;12312;53.362;-1.518;2023-04-07T12:47:02;1.98;;;0.45;;
24153;SDS011;12312;53.362;-1.518;2023-04-07T12:49:46;4.05;;;0.77;;
24153;SDS011;12312;53.362;-1.518;2023-04-07T12:52:30;1.50;;;0.65;;
24153;SDS011;12312;53.362;-1.518;2023-04-07T12:55:15;3.33;;;0.60;;
24153;SDS011;12312;53.362;-1.518;2023-04-07T12:58:00;1.63;;;0.60;;
24153;SDS011;12312;53.362;-1.518;2023-04-07T13:00:44;1.58;;;0.50;;
24153;SDS011;12312;53.362;-1.518;2023-04-07T13:03:29;1.15;;;0.40;;
24153;SDS011;12312;53.362;-1.518;2023-04-07T13:06:13;1.15;;;0.52;;
24153;SDS011;12312;53.362;-1.518;2023-04-07T13:08:57;1.48;;;0.52;;
24153;SDS011;12312;53.362;-1.518;2023-04-07T13:11:41;2.28;;;0.70;;
24153;SDS011;12312;53.362;-1.518;2023-04-07T13:14:25;1.88;;;0.52;;
24153;SDS011;12312;53.362;-1.518;2023-04-07T13:17:09;1.75;;;0.98;;
24153;SDS011;12312;53.362;-1.518;2023-04-07T13:19:53;2.30;;;0.77;;
24153;SDS011;12312;53.362;-1.518;2023-04-07T13:22:37;2.92;;;0.60;;
24153;SDS011;12312;53.362;-1.518;2023-04-07T13:25:22;2.55;;;0.70;;
24153;SDS011;12312;53.362;-1.518;2023-04-07T13:28:06;2.15;;;0.90;;
24153;SDS011;12312;53.362;-1.518;2023-04-07T13:30:50;4.00;;;0.80;;
24153;SDS011;12312;53.362;-1.518;2023-04-07T13:33:34;2.83;;;0.90;;
24153;SDS011;12312;53.362;-1.518;2023-04-07T13:36:20;2.33;;;0.80;;
24153;SDS011;12312;53.362;-1.518;2023-04-07T13:39:04;1.40;;;0.70;;
24153;SDS011;12312;53.362;-1.518;2023-04-07T13:41:49;2.50;;;0.95;;
24153;SDS011;12312;53.362;-1.518;2023-04-07T13:44:33;2.40;;;0.80;;
24153;SDS011;12312;53.362;-1.518;2023-04-07T13:47:19;4.90;;;0.95;;
24153;SDS011;12312;53.362;-1.518;2023-04-07T13:50:04;2.03;;;0.80;;
24153;SDS011;12312;53.362;-1.518;2023-04-07T13:52:49;1.92;;;0.88;;
24153;SDS011;12312;53.362;-1.518;2023-04-07T13:55:32;1.73;;;0.70;;
24153;SDS011;12312;53.362;-1.518;2023-04-07T13:58:16;2.05;;;0.70;;
24153;SDS011;12312;53.362;-1.518;2023-04-07T14:01:01;2.40;;;0.88;;
24153;SDS011;12312;53.362;-1.518;2023-04-07T14:03:46;2.72;;;0.88;;
24153;SDS011;12312;53.362;-1.518;2023-04-07T14:06:31;3.33;;;0.95;;
24153;SDS011;12312;53.362;-1.518;2023-04-07T14:09:15;2.30;;;0.90;;
24153;SDS011;12312;53.362;-1.518;2023-04-07T14:12:00;2.78;;;0.80;;
24153;SDS011;12312;53.362;-1.518;2023-04-07T14:14:44;1.77;;;1.00;;
24153;SDS011;12312;53.362;-1.518;2023-04-07T14:17:28;1.50;;;0.80;;
24153;SDS011;12312;53.362;-1.518;2023-04-07T14:20:12;2.30;;;0.80;;
24153;SDS011;12312;53.362;-1.518;2023-04-07T14:22:56;2.92;;;1.13;;
24153;SDS011;12312;53.362;-1.518;2023-04-07T14:25:40;5.60;;;0.90;;
24153;SDS011;12312;53.362;-1.518;2023-04-07T14:28:25;1.67;;;0.98;;
24153;SDS011;12312;53.362;-1.518;2023-04-07T14:31:11;3.20;;;0.80;;
24153;SDS011;12312;53.362;-1.518;2023-04-07T14:33:59;3.80;;;0.90;;
24153;SDS011;12312;53.362;-1.518;2023-04-07T14:36:51;0.85;;;0.63;;
24153;SDS011;12312;53.362;-1.518;2023-04-07T14:39:38;1.73;;;0.73;;
24153;SDS011;12312;53.362;-1.518;2023-04-07T14:42:22;3.15;;;0.80;;
24153;SDS011;12312;53.362;-1.518;2023-04-07T14:45:07;2.38;;;0.80;;
24153;SDS011;12312;53.362;-1.518;2023-04-07T14:47:51;2.83;;;1.45;;
24153;SDS011;12312;53.362;-1.518;2023-04-07T14:50:35;2.33;;;0.70;;
24153;SDS011;12312;53.362;-1.518;2023-04-07T14:53:19;1.30;;;0.82;;
24153;SDS011;12312;53.362;-1.518;2023-04-07T14:56:04;2.60;;;1.08;;
24153;SDS011;12312;53.362;-1.518;2023-04-07T14:58:49;3.17;;;0.70;;
24153;SDS011;12312;53.362;-1.518;2023-04-07T15:01:33;3.08;;;0.80;;
24153;SDS011;12312;53.362;-1.518;2023-04-07T15:04:18;2.42;;;1.05;;
24153;SDS011;12312;53.362;-1.518;2023-04-07T15:07:02;3.00;;;1.10;;
24153;SDS011;12312;53.362;-1.518;2023-04-07T15:09:46;2.72;;;1.00;;
24153;SDS011;12312;53.362;-1.518;2023-04-07T15:12:30;2.22;;;0.80;;
24153;SDS011;12312;53.362;-1.518;2023-04-07T15:15:16;2.85;;;1.13;;
24153;SDS011;12312;53.362;-1.518;2023-04-07T15:18:00;1.73;;;0.80;;
24153;SDS011;12312;53.362;-1.518;2023-04-07T15:20:44;5.30;;;0.82;;
24153;SDS011;12312;53.362;-1.518;2023-04-07T15:23:28;1.38;;;0.80;;
24153;SDS011;12312;53.362;-1.518;2023-04-07T15:26:12;2.60;;;0.88;;
24153;SDS011;12312;53.362;-1.518;2023-04-07T15:28:56;1.98;;;0.70;;
24153;SDS011;12312;53.362;-1.518;2023-04-07T15:31:40;3.17;;;1.00;;
24153;SDS011;12312;53.362;-1.518;2023-04-07T15:34:24;1.20;;;0.70;;
24153;SDS011;12312;53.362;-1.518;2023-04-07T15:37:08;2.08;;;0.80;;
24153;SDS011;12312;53.362;-1.518;2023-04-07T15:39:52;3.20;;;1.00;;
24153;SDS011;12312;53.362;-1.518;2023-04-07T15:42:36;2.97;;;0.90;;
24153;SDS011;12312;53.362;-1.518;2023-04-07T15:45:22;8.18;;;0.98;;
24153;SDS011;12312;53.362;-1.518;2023-04-07T15:48:06;2.70;;;0.80;;
24153;SDS011;12312;53.362;-1.518;2023-04-07T15:50:50;4.10;;;1.02;;
24153;SDS011;12312;53.362;-1.518;2023-04-07T15:56:20;1.90;;;0.80;;
24153;SDS011;12312;53.362;-1.518;2023-04-07T15:59:07;1.10;;;0.70;;
24153;SDS011;12312;53.362;-1.518;2023-04-07T16:01:50;2.22;;;0.82;;
24153;SDS011;12312;53.362;-1.518;2023-04-07T16:04:36;2.22;;;1.08;;
24153;SDS011;12312;53.362;-1.518;2023-04-07T16:07:20;3.70;;;1.23;;
24153;SDS011;12312;53.362;-1.518;2023-04-07T16:10:05;1.67;;;0.70;;
24153;SDS011;12312;53.362;-1.518;2023-04-07T16:12:50;3.28;;;1.05;;
24153;SDS011;12312;53.362;-1.518;2023-04-07T16:15:34;3.20;;;0.80;;
24153;SDS011;12312;53.362;-1.518;2023-04-07T16:18:19;1.92;;;0.90;;
24153;SDS011;12312;53.362;-1.518;2023-04-07T16:21:07;1.80;;;1.02;;
24153;SDS011;12312;53.362;-1.518;2023-04-07T16:23:51;4.55;;;1.50;;
24153;SDS011;12312;53.362;-1.518;2023-04-07T16:26:34;4.45;;;1.38;;
24153;SDS011;12312;53.362;-1.518;2023-04-07T16:29:18;5.47;;;1.30;;
24153;SDS011;12312;53.362;-1.518;2023-04-07T16:32:02;4.50;;;1.10;;
24153;SDS011;12312;53.362;-1.518;2023-04-07T16:34:47;4.25;;;1.27;;
24153;SDS011;12312;53.362;-1.518;2023-04-07T16:37:32;4.72;;;1.38;;
24153;SDS011;12312;53.362;-1.518;2023-04-07T16:40:16;3.83;;;1.50;;
24153;SDS011;12312;53.362;-1.518;2023-04-07T16:43:00;4.03;;;1.40;;
24153;SDS011;12312;53.362;-1.518;2023-04-07T16:45:50;2.97;;;1.30;;